26 | 06 | 2016
Hauptmenü
Navigation
Login Form

jNews Module
Bitte registrieren Sie sich, bevor Sie eine Liste abonnieren.
No account yet? Register
Letzte Beiträge
Meistgelesen
Metar Bottom
EDDB
EDDB 260220Z 28015KT 9999 BKN015 17/13 Q1013 TEMPO BKN012
Termine
Mi Jul 13 @19:30 -
Clubabend
Mi Aug 10 @19:30 -
Clubabend
Metar
EDDW
EDDW 260220Z 22005KT 180V240 8000 BKN004 13/12 Q1014
TAF
EDDW
TAF
AMD TAF
AMD EDDW 252023Z 2520/2618 30010KT 8000 SCT006 BKN030 PROB30
TEMPO 2520/2523 3500 DZRA PROB30
TEMPO 2520/2608 BKN008
BECMG 2600/2603 24010KT PROB30
TEMPO 2602/2606 4000 BR
NOTAM
Data not avlb.
(due to wrong input of icao-codes or 'allow_url_fopen' is OFF [1] and cURL not enabled [1] on this server!)
Visitors Counter
457912
Diese WocheDiese Woche4846
Diesen MonatDiesen Monat19221
Metar Test1